Terminal Aerodrome Forecast
Issued by NWS

Home | Current Version | Previous Version | Text Only | Print | Product List | Glossary On
Versions: 1 2 3 4 5 6 7 8 9 10 11 12 13 14 15 16 17 18
318
FTUS43 KPAH 251720
TAFCGI
TAF
KCGI 251720Z 2518/2618 30010KT P6SM SKC
     FM260130 30003KT P6SM SCT100
     FM261400 01004KT P6SM SCT050 BKN100=

USA.gov is the U.S. government's official web portal to all federal, state and local government web resources and services.